Summerfield, OH (43788)

6:47 AM EST on January 25, 2015 (GMT -0500)
Jerusalem | Change Station
CLOSE
Current Station
Personal Weather Station
Location: Jerusalem, OH
Elevation: 1253 ft
Nearby Weather Stations
Active Advisory: Winter Weather Advisory

Elev 1253 ft 39.86 °N, 81.11 °W | Updated 2 seconds ago

Overcast
Overcast
31.8 °F
Feels Like 28 °F
N
4.3
Wind Variable Wind from SSW
Gusts 5.0 mph

Today
High -- | Low -- °F
--% Chance of Precip.
Yesterday
High -- | Low -- °F
Precip. -- in
7:39 AM 5:36 PM
Waxing Crescent, 31% visible
Pressure 29.78 in
Visibility 4.0 miles
Clouds Overcast 4100 ft
Windchill 28 °F
Dew Point 31 °F
Humidity 96%
Rainfall 0.00 in
Snow Depth Not available.
UV 0 out of 12
Pollen .10 out of 12
Air Quality Not available.
Flu Activity Not available.
METAR KZZV 251053Z AUTO 19004KT 4SM BR OVC041 00/M02 A2975 RMK AO2 SLP083 T00001017

More Conditions Fewer Conditions

Pressure 29.78 in
Visibility 4.0 miles
Clouds Overcast 4100 ft
Windchill 28 °F
Dew Point 31 °F
Humidity 96%
Rainfall 0.00 in
Snow Depth Not available.
UV 0 out of 12
Pollen .10 out of 12
Air Quality Not available.
Flu Activity Not available.
METAR KZZV 251053Z AUTO 19004KT 4SM BR OVC041 00/M02 A2975 RMK AO2 SLP083 T00001017

More Conditions Fewer Conditions

10-Day Weather Forecast

Almanac

Astronomy

Jan. 25, 2015 Rise Set
Actual Time
Civil Twilight
Nautical Twilight
Astronomical Twilight
Moon
Length of Visible Light
Length of Day
Tomorrow will be .
, % of the Moon is Illuminated

Today's Extremes

State Highs State Lows

Community

WunderPhotos

Upload Photos

1,789,874 photos uploaded!

WunderBlogs® & News

Nearby

Air Quality

  Air Quality AQ Index Pollutant
Not available.

Snow Depth

Station Depth Elevation

Earthquake Activity

City Distance Mag. Time & Date
Minimum magnitude displayed is 2.5.

Coastal Water Temperatures

Place Temperature

Nearby Weather Stations